createdAt,value
2022-10-13T00:01:47.827Z,18.75
2022-10-13T00:04:16.250Z,16.90
2022-10-13T00:06:44.796Z,18.55
2022-10-13T00:09:14.776Z,19.58
2022-10-13T00:11:43.373Z,17.63
2022-10-13T00:14:12.007Z,16.58
2022-10-13T00:16:40.592Z,16.42
2022-10-13T00:19:14.231Z,15.15
2022-10-13T00:21:43.527Z,19.83
2022-10-13T00:24:13.187Z,15.02
2022-10-13T00:26:43.120Z,18.50
2022-10-13T00:29:11.690Z,19.73
2022-10-13T00:31:40.255Z,16.85
2022-10-13T00:34:08.799Z,19.30
2022-10-13T00:36:37.305Z,17.45
2022-10-13T00:39:05.985Z,19.33
2022-10-13T00:41:34.519Z,18.55
2022-10-13T00:44:06.637Z,18.40
2022-10-13T00:46:35.896Z,18.50
2022-10-13T00:49:06.766Z,18.85
2022-10-13T00:51:37.963Z,20.77
2022-10-13T00:54:06.921Z,19.48
2022-10-13T00:56:35.525Z,23.42
2022-10-13T00:59:05.980Z,21.38
2022-10-13T01:01:34.467Z,18.00
2022-10-13T01:04:03.192Z,19.38
2022-10-13T01:06:32.032Z,19.73
2022-10-13T01:09:00.510Z,17.67
2022-10-13T01:11:36.957Z,18.50
2022-10-13T01:14:10.113Z,19.27
2022-10-13T01:16:42.323Z,17.38
2022-10-13T01:19:16.853Z,18.63
2022-10-13T01:21:49.194Z,20.70
2022-10-13T01:24:30.852Z,18.75
2022-10-13T01:27:17.281Z,18.40
2022-10-13T01:30:15.757Z,20.13
2022-10-13T01:33:01.748Z,16.30
2022-10-13T01:35:35.350Z,18.60
2022-10-13T01:38:07.313Z,24.67
2022-10-13T01:40:42.584Z,17.65
2022-10-13T01:43:13.020Z,18.50
2022-10-13T01:45:44.403Z,23.35
2022-10-13T01:48:14.637Z,18.95
2022-10-13T01:50:43.420Z,25.80
2022-10-13T01:53:12.071Z,17.77
2022-10-13T01:55:50.070Z,17.55
2022-10-13T01:58:18.407Z,19.02
2022-10-13T02:00:52.275Z,19.30
2022-10-13T02:03:24.108Z,19.75
2022-10-13T02:05:59.054Z,19.40
2022-10-13T02:08:31.865Z,16.92
2022-10-13T02:11:03.527Z,16.42
2022-10-13T02:13:33.048Z,19.35
2022-10-13T02:16:02.874Z,16.65
2022-10-13T02:18:33.715Z,20.15
2022-10-13T02:21:02.500Z,22.33
2022-10-13T02:23:31.046Z,15.23
2022-10-13T02:26:01.112Z,17.98
2022-10-13T02:28:30.177Z,22.88
2022-10-13T02:30:58.787Z,17.60
2022-10-13T02:33:27.119Z,16.80
2022-10-13T02:35:56.836Z,18.80
2022-10-13T02:38:25.139Z,21.30
2022-10-13T02:40:54.856Z,16.77
2022-10-13T02:43:23.192Z,19.80
2022-10-13T02:45:51.542Z,22.70
2022-10-13T02:48:19.852Z,17.73
2022-10-13T02:50:48.367Z,14.23
2022-10-13T02:53:18.140Z,18.80
2022-10-13T02:55:46.570Z,19.10
2022-10-13T02:58:14.925Z,17.60
2022-10-13T03:00:43.399Z,21.58
2022-10-13T03:03:12.953Z,19.02
2022-10-13T03:05:41.294Z,19.50
2022-10-13T03:08:09.625Z,22.38
2022-10-13T03:10:39.569Z,18.42
2022-10-13T03:13:07.903Z,16.00
2022-10-13T03:15:36.283Z,17.50
2022-10-13T03:18:04.676Z,21.35
2022-10-13T03:20:33.031Z,20.05
2022-10-13T03:23:01.369Z,17.17
2022-10-13T03:25:29.776Z,16.52
2022-10-13T03:27:59.497Z,16.35
2022-10-13T03:30:27.949Z,22.95
2022-10-13T03:32:56.309Z,19.58
2022-10-13T03:35:24.785Z,21.05
2022-10-13T03:37:53.227Z,18.92
2022-10-13T03:40:21.557Z,18.38
2022-10-13T03:42:49.896Z,17.50
2022-10-13T03:45:19.614Z,20.10
2022-10-13T03:47:47.957Z,20.48
2022-10-13T03:50:16.384Z,21.63
2022-10-13T03:52:44.685Z,20.73
2022-10-13T03:55:13.047Z,21.10
2022-10-13T03:57:41.418Z,18.95
2022-10-13T04:00:11.392Z,16.50
2022-10-13T04:02:41.116Z,19.92
2022-10-13T04:05:09.762Z,19.88
2022-10-13T04:07:38.077Z,22.05
2022-10-13T04:10:11.153Z,17.42
2022-10-13T04:12:39.769Z,18.02
2022-10-13T04:15:08.771Z,20.80
2022-10-13T04:17:37.181Z,18.85
2022-10-13T04:20:07.758Z,19.33
2022-10-13T04:22:36.273Z,18.10
2022-10-13T04:25:04.619Z,23.70
2022-10-13T04:27:33.519Z,17.00
2022-10-13T04:30:01.939Z,18.55
2022-10-13T04:32:30.296Z,19.05
2022-10-13T04:34:58.716Z,18.58
2022-10-13T04:37:28.597Z,16.48
2022-10-13T04:39:56.968Z,17.20
2022-10-13T04:42:25.424Z,22.10
2022-10-13T04:44:53.832Z,20.88
2022-10-13T04:47:22.172Z,20.63
2022-10-13T04:49:50.535Z,16.38
2022-10-13T04:52:19.267Z,16.67
2022-10-13T04:54:49.412Z,19.90
2022-10-13T04:57:17.758Z,19.83
2022-10-13T04:59:46.724Z,16.95
2022-10-13T05:02:15.092Z,17.45
2022-10-13T05:04:43.434Z,17.85
2022-10-13T05:07:19.129Z,18.27
2022-10-13T05:09:48.894Z,16.25
2022-10-13T05:12:17.430Z,17.50
2022-10-13T05:14:45.931Z,16.63
2022-10-13T05:17:14.300Z,13.80
2022-10-13T05:19:42.650Z,15.50
2022-10-13T05:22:10.997Z,17.13
2022-10-13T05:24:39.860Z,20.75
2022-10-13T05:27:11.614Z,18.33
2022-10-13T05:29:40.119Z,18.15
2022-10-13T05:32:08.860Z,17.20
2022-10-13T05:34:37.209Z,19.35
2022-10-13T05:37:05.754Z,17.83
2022-10-13T05:39:34.087Z,19.40
2022-10-13T05:42:02.409Z,20.17
2022-10-13T05:44:32.334Z,15.23
2022-10-13T05:47:05.024Z,16.17
2022-10-13T05:49:39.743Z,15.63
2022-10-13T05:52:10.119Z,17.60
2022-10-13T05:54:40.178Z,18.65
2022-10-13T05:57:13.563Z,15.18
2022-10-13T05:59:45.279Z,15.00
2022-10-13T06:02:15.842Z,18.73
2022-10-13T06:04:46.989Z,19.10
2022-10-13T06:07:15.576Z,19.33
2022-10-13T06:09:44.711Z,16.70
2022-10-13T06:12:13.065Z,21.67
2022-10-13T06:14:42.772Z,20.92
2022-10-13T06:17:11.495Z,17.92
2022-10-13T06:19:39.825Z,18.88
2022-10-13T06:22:08.463Z,19.88
2022-10-13T06:24:36.841Z,20.73
2022-10-13T06:27:05.386Z,18.02
2022-10-13T06:29:34.109Z,18.10
2022-10-13T06:32:04.242Z,18.58
2022-10-13T06:34:32.640Z,22.95
2022-10-13T06:37:01.363Z,17.05
2022-10-13T06:39:29.672Z,17.73
2022-10-13T06:41:57.990Z,19.40
2022-10-13T06:44:26.379Z,19.80
2022-10-13T06:46:54.936Z,16.73
2022-10-13T06:49:24.759Z,16.13
2022-10-13T06:51:53.092Z,16.92
2022-10-13T06:54:21.503Z,15.13
2022-10-13T06:56:49.863Z,17.77
2022-10-13T06:59:18.177Z,17.35
2022-10-13T07:01:46.726Z,15.50
2022-10-13T07:04:15.315Z,15.23
2022-10-13T07:06:45.074Z,18.85
2022-10-13T07:09:13.449Z,14.80
2022-10-13T07:11:41.822Z,15.40
2022-10-13T07:14:10.150Z,18.35
2022-10-13T07:16:38.668Z,17.73
2022-10-13T07:19:07.019Z,16.02
2022-10-13T07:21:35.411Z,18.33
2022-10-13T07:24:05.446Z,13.68
2022-10-13T07:26:34.127Z,16.05
2022-10-13T07:29:02.452Z,16.77
2022-10-13T07:31:30.843Z,15.88
2022-10-13T07:34:00.545Z,15.23
2022-10-13T07:36:29.063Z,15.50
2022-10-13T07:38:58.515Z,13.38
2022-10-13T07:41:28.306Z,17.55
2022-10-13T07:43:57.000Z,16.45
2022-10-13T07:46:25.809Z,18.52
2022-10-13T07:48:54.674Z,17.25
2022-10-13T07:51:23.781Z,16.73
2022-10-13T07:53:52.850Z,16.00
2022-10-13T07:56:21.499Z,16.67
2022-10-13T07:58:51.847Z,17.15
2022-10-13T08:01:20.583Z,17.35
2022-10-13T08:03:50.456Z,15.82
2022-10-13T08:06:19.396Z,15.30
2022-10-13T08:08:47.964Z,14.40
2022-10-13T08:11:17.508Z,17.60
2022-10-13T08:13:48.639Z,17.08
2022-10-13T08:16:18.395Z,16.85
2022-10-13T08:18:47.043Z,19.25
2022-10-13T08:21:45.965Z,15.43
2022-10-13T08:24:06.242Z,17.20
2022-10-13T08:26:34.653Z,17.17
2022-10-13T08:29:21.416Z,13.82
2022-10-13T08:31:52.462Z,13.80
2022-10-13T08:34:21.698Z,15.75
2022-10-13T08:36:53.057Z,14.02
2022-10-13T08:39:21.977Z,14.02
2022-10-13T08:41:51.050Z,16.88
2022-10-13T08:47:17.270Z,19.08
2022-10-13T08:49:46.980Z,20.70
2022-10-13T08:52:18.800Z,19.30
2022-10-13T08:54:47.596Z,17.20
2022-10-13T08:57:16.091Z,13.85
2022-10-13T08:59:44.454Z,18.23
2022-10-13T09:02:16.203Z,16.67
2022-10-13T09:04:47.361Z,16.55
2022-10-13T09:07:17.954Z,16.08
2022-10-13T09:09:46.571Z,16.42
2022-10-13T09:12:15.854Z,13.38
2022-10-13T09:14:44.201Z,12.43
2022-10-13T09:17:17.976Z,16.13
2022-10-13T09:19:47.118Z,16.80
2022-10-13T09:22:17.614Z,13.30
2022-10-13T09:24:46.155Z,14.43
2022-10-13T09:27:16.445Z,16.60
2022-10-13T09:29:46.025Z,15.38
2022-10-13T09:32:20.174Z,17.67
2022-10-13T09:34:48.756Z,16.88
2022-10-13T09:37:21.710Z,14.20
2022-10-13T09:40:02.157Z,16.90
2022-10-13T09:42:32.074Z,15.02
2022-10-13T09:45:02.806Z,17.65
2022-10-13T09:47:33.261Z,15.98
2022-10-13T09:50:07.645Z,17.00
2022-10-13T09:52:36.422Z,15.75
2022-10-13T09:55:04.828Z,17.13
2022-10-13T09:57:36.614Z,12.05
2022-10-13T10:00:23.087Z,13.98
2022-10-13T10:02:55.708Z,12.82
2022-10-13T10:05:26.265Z,15.05
2022-10-13T10:07:55.322Z,13.70
2022-10-13T10:10:28.669Z,14.75
2022-10-13T10:12:58.304Z,15.23
2022-10-13T10:15:30.465Z,18.42
2022-10-13T10:18:02.946Z,13.05
2022-10-13T10:20:36.851Z,12.02
2022-10-13T10:23:08.370Z,11.55
2022-10-13T10:25:41.842Z,14.50
2022-10-13T10:28:19.833Z,14.48
2022-10-13T10:30:52.305Z,14.55
2022-10-13T10:33:23.574Z,15.00
2022-10-13T10:35:54.417Z,13.52
2022-10-13T10:38:26.494Z,10.90
2022-10-13T10:40:59.505Z,17.33
2022-10-13T10:43:48.616Z,12.18
2022-10-13T10:46:18.765Z,11.35
2022-10-13T10:48:50.676Z,11.88
2022-10-13T10:51:19.613Z,17.63
2022-10-13T10:53:54.823Z,15.75
2022-10-13T10:56:27.510Z,14.05
2022-10-13T10:59:00.347Z,10.30
2022-10-13T11:01:33.112Z,11.50
2022-10-13T11:04:12.909Z,14.75
2022-10-13T11:06:41.433Z,10.88
2022-10-13T11:09:13.139Z,12.80
2022-10-13T11:11:43.096Z,13.52
2022-10-13T11:14:25.946Z,15.15
2022-10-13T11:17:18.539Z,14.20
2022-10-13T11:19:49.360Z,14.20
2022-10-13T11:22:19.685Z,14.73
2022-10-13T11:24:52.716Z,17.85
2022-10-13T11:27:25.338Z,14.13
2022-10-13T11:29:55.195Z,14.23
2022-10-13T11:32:55.670Z,14.38
2022-10-13T11:35:28.021Z,16.02
2022-10-13T11:38:07.653Z,14.38
2022-10-13T11:40:39.820Z,14.02
2022-10-13T11:43:26.319Z,15.10
2022-10-13T11:46:15.427Z,13.93
2022-10-13T11:49:10.729Z,15.82
2022-10-13T11:51:48.671Z,10.98
2022-10-13T11:54:22.444Z,14.07
2022-10-13T11:56:51.657Z,16.08
2022-10-13T11:59:24.251Z,12.25
2022-10-13T12:01:56.164Z,14.60
2022-10-13T12:04:25.584Z,13.05
2022-10-13T12:07:01.213Z,14.57
2022-10-13T12:09:30.044Z,13.05
2022-10-13T12:11:59.481Z,13.82
2022-10-13T12:14:31.649Z,15.65
2022-10-13T12:17:01.133Z,12.70
2022-10-13T12:19:30.608Z,11.02
2022-10-13T12:22:02.059Z,11.15
2022-10-13T12:24:31.460Z,12.27
2022-10-13T12:27:00.379Z,12.30
2022-10-13T12:29:34.834Z,9.95
2022-10-13T12:32:05.983Z,13.25
2022-10-13T12:34:36.438Z,13.20
2022-10-13T12:37:08.536Z,8.77
2022-10-13T12:39:37.584Z,10.70
2022-10-13T12:42:08.578Z,10.35
2022-10-13T12:44:37.106Z,10.70
2022-10-13T12:47:05.554Z,13.65
2022-10-13T12:49:34.847Z,13.10
2022-10-13T12:52:08.149Z,11.10
2022-10-13T12:54:38.477Z,12.75
2022-10-13T12:57:08.162Z,11.73
2022-10-13T12:59:42.351Z,12.93
2022-10-13T13:02:19.966Z,9.75
2022-10-13T13:04:48.780Z,10.05
2022-10-13T13:07:32.671Z,13.30
2022-10-13T13:10:02.113Z,8.77
2022-10-13T13:12:31.380Z,9.88
2022-10-13T13:15:00.765Z,11.85
2022-10-13T13:17:57.704Z,11.63
2022-10-13T13:20:23.590Z,10.18
2022-10-13T13:22:53.600Z,7.68
2022-10-13T13:25:22.296Z,7.53
2022-10-13T13:27:51.202Z,8.45
2022-10-13T13:30:20.584Z,10.52
2022-10-13T13:32:49.142Z,8.88
2022-10-13T13:35:17.837Z,9.50
2022-10-13T13:37:48.138Z,9.27
2022-10-13T13:40:19.307Z,8.57
2022-10-13T13:42:48.829Z,8.25
2022-10-13T13:45:18.198Z,8.18
2022-10-13T13:47:46.717Z,11.98
2022-10-13T13:50:17.443Z,8.52
2022-10-13T13:52:46.928Z,9.00
2022-10-13T13:55:15.435Z,9.90
2022-10-13T13:57:45.926Z,10.68
2022-10-13T14:00:15.235Z,9.63
2022-10-13T14:02:43.954Z,8.07
2022-10-13T14:05:12.628Z,9.02
2022-10-13T14:07:41.079Z,10.57
2022-10-13T14:10:10.594Z,8.85
2022-10-13T14:12:39.363Z,10.93
2022-10-13T14:15:09.995Z,11.75
2022-10-13T14:17:38.399Z,9.15
2022-10-13T14:20:08.353Z,10.10
2022-10-13T14:22:39.239Z,8.88
2022-10-13T14:25:08.265Z,10.25
2022-10-13T14:27:37.131Z,14.55
2022-10-13T14:30:06.018Z,12.63
2022-10-13T14:32:36.336Z,13.77
2022-10-13T14:35:04.924Z,12.80
2022-10-13T14:37:34.126Z,8.88
2022-10-13T14:40:02.813Z,10.05
2022-10-13T14:42:32.920Z,12.90
2022-10-13T14:45:02.832Z,11.85
2022-10-13T14:47:31.300Z,12.68
2022-10-13T14:50:02.187Z,10.73
2022-10-13T14:52:30.689Z,10.07
2022-10-13T14:54:59.119Z,11.48
2022-10-13T14:57:27.572Z,13.10
2022-10-13T15:00:00.847Z,13.43
2022-10-13T15:02:30.397Z,10.80
2022-10-13T15:04:59.014Z,14.13
2022-10-13T15:07:28.879Z,16.38
2022-10-13T15:10:05.904Z,13.18
2022-10-13T15:12:35.109Z,15.50
2022-10-13T15:15:03.532Z,14.65
2022-10-13T15:17:33.330Z,14.25
2022-10-13T15:20:01.854Z,11.80
2022-10-13T15:22:31.663Z,16.77
2022-10-13T15:25:00.331Z,13.43
2022-10-13T15:27:28.766Z,14.63
2022-10-13T15:29:57.604Z,14.07
2022-10-13T15:32:26.182Z,13.35
2022-10-13T15:34:54.610Z,13.73
2022-10-13T15:37:23.069Z,15.25
2022-10-13T15:39:57.218Z,17.33
2022-10-13T15:42:26.102Z,13.75
2022-10-13T15:45:09.279Z,15.93
2022-10-13T15:47:38.985Z,15.80
2022-10-13T15:50:07.940Z,13.73
2022-10-13T15:52:40.173Z,15.75
2022-10-13T15:55:10.533Z,15.43
2022-10-13T15:57:39.570Z,16.33
2022-10-13T16:00:09.512Z,18.27
2022-10-13T16:02:37.955Z,16.63
2022-10-13T16:05:06.811Z,17.80
2022-10-13T16:07:35.683Z,17.48
2022-10-13T16:10:04.462Z,15.82
2022-10-13T16:12:34.375Z,15.68
2022-10-13T16:15:02.858Z,19.35
2022-10-13T16:17:31.331Z,19.67
2022-10-13T16:19:59.767Z,20.00
2022-10-13T16:22:28.582Z,20.40
2022-10-13T16:24:57.021Z,23.27
2022-10-13T16:27:25.608Z,17.98
2022-10-13T16:29:55.485Z,19.02
2022-10-13T16:32:24.034Z,21.50
2022-10-13T16:34:52.452Z,21.25
2022-10-13T16:37:21.165Z,23.95
2022-10-13T16:39:52.088Z,20.45
2022-10-13T16:42:21.078Z,23.55
2022-10-13T16:44:49.473Z,22.83
2022-10-13T16:47:19.322Z,23.83
2022-10-13T16:49:48.190Z,20.58
2022-10-13T16:52:16.633Z,24.17
2022-10-13T16:54:45.056Z,26.38
2022-10-13T16:57:13.532Z,27.08
2022-10-13T16:59:42.427Z,22.98
2022-10-13T17:02:14.592Z,20.58
2022-10-13T17:04:44.826Z,22.25
2022-10-13T17:07:13.235Z,19.98
2022-10-13T17:09:41.708Z,21.52
2022-10-13T17:12:10.328Z,18.63
2022-10-13T17:14:38.772Z,22.50
2022-10-13T17:17:07.183Z,18.08
2022-10-13T17:19:35.805Z,20.25
2022-10-13T17:22:05.741Z,22.00
2022-10-13T17:24:34.137Z,17.65
2022-10-13T17:27:02.600Z,19.38
2022-10-13T17:29:31.018Z,15.15
2022-10-13T17:33:04.595Z,17.20
2022-10-13T17:35:33.689Z,17.70
2022-10-13T17:38:02.140Z,19.30
2022-10-13T17:40:30.552Z,18.00
2022-10-13T17:42:58.977Z,15.98
2022-10-13T17:45:27.773Z,16.23
2022-10-13T17:47:58.752Z,16.17
2022-10-13T17:50:29.664Z,18.90
2022-10-13T17:52:58.379Z,17.13
2022-10-13T17:55:26.932Z,18.92
2022-10-13T17:57:55.432Z,18.02
2022-10-13T18:00:23.941Z,21.13
2022-10-13T18:02:52.435Z,17.00
2022-10-13T18:05:20.822Z,18.08
2022-10-13T18:07:50.657Z,17.98
2022-10-13T18:10:20.262Z,18.83
2022-10-13T18:12:48.672Z,18.67
2022-10-13T18:15:17.083Z,17.70
2022-10-13T18:17:45.696Z,20.08
2022-10-13T18:20:14.112Z,22.67
2022-10-13T18:22:42.511Z,18.73
2022-10-13T18:25:12.507Z,18.98
2022-10-13T18:27:40.914Z,19.83
2022-10-13T18:30:10.063Z,21.65
2022-10-13T18:32:38.471Z,20.38
2022-10-13T18:35:07.486Z,19.42
2022-10-13T18:37:37.107Z,23.55
2022-10-13T18:40:05.946Z,21.48
2022-10-13T18:42:35.729Z,23.13
2022-10-13T18:45:04.707Z,24.20
2022-10-13T18:47:33.157Z,19.85
2022-10-13T18:50:02.070Z,27.83
2022-10-13T18:52:30.548Z,24.90
2022-10-13T18:54:58.933Z,23.50
2022-10-13T18:57:27.503Z,19.58
2022-10-13T18:59:57.340Z,20.98
2022-10-13T19:02:25.846Z,20.55
2022-10-13T19:04:54.323Z,23.75
2022-10-13T19:07:23.320Z,22.70
2022-10-13T19:09:51.853Z,24.05
2022-10-13T19:12:20.438Z,21.88
2022-10-13T19:14:48.864Z,19.27
2022-10-13T19:17:19.172Z,21.10
2022-10-13T19:19:48.076Z,19.70
2022-10-13T19:22:16.570Z,20.75
2022-10-13T19:24:44.983Z,24.35
2022-10-13T19:27:13.489Z,23.98
2022-10-13T19:29:41.867Z,23.20
2022-10-13T19:32:10.300Z,26.70
2022-10-13T19:34:40.077Z,25.35
2022-10-13T19:37:08.563Z,27.15
2022-10-13T19:39:36.987Z,24.98
2022-10-13T19:42:05.522Z,27.35
2022-10-13T19:44:33.836Z,26.90
2022-10-13T19:47:02.311Z,26.58
2022-10-13T19:49:30.699Z,28.15
2022-10-13T19:52:00.570Z,27.20
2022-10-13T19:54:33.026Z,29.30
2022-10-13T19:57:02.462Z,32.10
2022-10-13T19:59:30.817Z,27.73
2022-10-13T20:01:59.205Z,28.15
2022-10-13T20:04:27.891Z,31.73
2022-10-13T20:06:56.515Z,26.33
2022-10-13T20:09:26.292Z,29.80
2022-10-13T20:11:54.711Z,26.45
2022-10-13T20:14:23.293Z,30.27
2022-10-13T20:16:51.806Z,26.25
2022-10-13T20:19:20.226Z,30.30
2022-10-13T20:21:51.941Z,26.63
2022-10-13T20:24:20.724Z,29.83
2022-10-13T20:26:50.663Z,28.40
2022-10-13T20:29:19.248Z,29.95
2022-10-13T20:31:47.672Z,26.42
2022-10-13T20:34:16.272Z,28.67
2022-10-13T20:36:44.676Z,26.85
2022-10-13T20:39:13.194Z,27.13
2022-10-13T20:41:41.568Z,25.38
2022-10-13T20:44:11.957Z,27.15
2022-10-13T20:46:40.452Z,21.88
2022-10-13T20:49:11.916Z,23.98
2022-10-13T20:51:41.293Z,21.40
2022-10-13T20:54:09.756Z,17.63
2022-10-13T20:56:38.170Z,23.17
2022-10-13T20:59:07.085Z,17.13
2022-10-13T21:01:37.492Z,18.70
2022-10-13T21:04:06.442Z,20.38
2022-10-13T21:06:35.891Z,16.77
2022-10-13T21:09:04.762Z,19.38
2022-10-13T21:11:33.168Z,18.85
2022-10-13T21:14:06.123Z,18.13
2022-10-13T21:16:34.595Z,20.80
2022-10-13T21:19:04.846Z,17.02
2022-10-13T21:21:34.704Z,17.88
2022-10-13T21:24:04.875Z,16.27
2022-10-13T21:26:33.479Z,18.80
2022-10-13T21:29:03.056Z,17.38
2022-10-13T21:31:31.894Z,16.38
2022-10-13T21:34:00.970Z,16.50
2022-10-13T21:36:32.286Z,17.38
2022-10-13T21:39:01.600Z,19.95
2022-10-13T21:41:30.462Z,17.73
2022-10-13T21:43:59.361Z,16.60
2022-10-13T21:46:28.552Z,20.63
2022-10-13T21:48:57.614Z,18.00
2022-10-13T21:51:26.568Z,16.33
2022-10-13T21:53:57.365Z,16.15
2022-10-13T21:56:26.665Z,15.50
2022-10-13T21:58:55.998Z,21.45
2022-10-13T22:01:25.126Z,16.55
2022-10-13T22:03:55.209Z,15.77
2022-10-13T22:06:23.648Z,16.38
2022-10-13T22:08:52.481Z,18.67
2022-10-13T22:11:23.138Z,20.17
2022-10-13T22:13:51.486Z,19.17
2022-10-13T22:16:21.244Z,17.40
2022-10-13T22:18:50.003Z,19.05
2022-10-13T22:21:19.445Z,17.83
2022-10-13T22:23:48.199Z,20.80
2022-10-13T22:26:17.068Z,22.98
2022-10-13T22:28:48.380Z,19.00
2022-10-13T22:31:16.883Z,20.48
2022-10-13T22:33:45.383Z,20.50
2022-10-13T22:36:16.168Z,20.42
2022-10-13T22:38:44.973Z,16.15
2022-10-13T22:41:14.756Z,18.85
2022-10-13T22:43:44.465Z,18.80
2022-10-13T22:46:14.770Z,18.98
2022-10-13T22:48:43.232Z,16.50
2022-10-13T22:51:12.100Z,14.85
2022-10-13T22:53:41.013Z,16.65
2022-10-13T22:56:10.327Z,17.08
2022-10-13T22:58:38.794Z,19.35
2022-10-13T23:01:08.666Z,22.30
2022-10-13T23:03:38.638Z,18.17
2022-10-13T23:06:08.256Z,17.40
2022-10-13T23:08:37.069Z,23.42
2022-10-13T23:11:05.532Z,16.77
2022-10-13T23:13:33.896Z,20.98
2022-10-13T23:16:03.409Z,19.08
2022-10-13T23:18:31.791Z,21.60
2022-10-13T23:21:01.548Z,19.38
2022-10-13T23:23:29.876Z,19.05
2022-10-13T23:25:58.205Z,19.45
2022-10-13T23:28:26.597Z,22.77
2022-10-13T23:30:55.236Z,23.45
2022-10-13T23:33:23.567Z,22.80
2022-10-13T23:35:55.715Z,19.38
2022-10-13T23:38:25.761Z,18.75
2022-10-13T23:40:54.128Z,22.55
2022-10-13T23:43:22.773Z,21.25
2022-10-13T23:45:51.184Z,24.20
2022-10-13T23:48:19.546Z,22.02
2022-10-13T23:50:48.471Z,20.27
2022-10-13T23:53:16.867Z,24.33
2022-10-13T23:55:46.601Z,22.33
2022-10-13T23:58:15.131Z,20.92
